createdAt,value
2022-10-22T00:00:08.754Z,99194.22
2022-10-22T00:02:36.098Z,99197.03
2022-10-22T00:05:05.385Z,99200.41
2022-10-22T00:07:32.652Z,99210.41
2022-10-22T00:09:59.203Z,99209.69
2022-10-22T00:12:26.513Z,99213.91
2022-10-22T00:14:53.220Z,99217.63
2022-10-22T00:17:20.503Z,99209.53
2022-10-22T00:19:47.974Z,99214.56
2022-10-22T00:22:17.352Z,99218.16
2022-10-22T00:24:43.943Z,99216.84
2022-10-22T00:27:12.508Z,99212.66
2022-10-22T00:29:39.456Z,99217.16
2022-10-22T00:32:06.533Z,99208.59
2022-10-22T00:34:36.689Z,99219.50
2022-10-22T00:37:03.528Z,99227.22
2022-10-22T00:39:31.519Z,99222.34
2022-10-22T00:41:59.311Z,99219.19
2022-10-22T00:45:08.677Z,99216.13
2022-10-22T00:47:39.462Z,99210.31
2022-10-22T00:50:11.701Z,99217.00
2022-10-22T00:52:39.419Z,99217.16
2022-10-22T00:55:09.694Z,99210.09
2022-10-22T00:57:36.949Z,99216.09
2022-10-22T01:00:06.068Z,99217.75
2022-10-22T01:02:32.993Z,99208.72
2022-10-22T01:04:59.565Z,99210.88
2022-10-22T01:07:26.940Z,99205.16
2022-10-22T01:10:04.389Z,99203.75
2022-10-22T01:12:43.059Z,99218.47
2022-10-22T01:15:19.184Z,99211.25
2022-10-22T01:17:55.762Z,99211.19
2022-10-22T01:20:39.907Z,99207.56
2022-10-22T01:23:21.836Z,99203.97
2022-10-22T01:25:54.624Z,99197.28
2022-10-22T01:28:37.655Z,99199.88
2022-10-22T01:31:06.265Z,99191.38
2022-10-22T01:33:33.660Z,99178.25
2022-10-22T01:36:01.858Z,99184.78
2022-10-22T01:38:29.701Z,99185.16
2022-10-22T01:40:57.299Z,99181.34
2022-10-22T01:43:24.026Z,99192.88
2022-10-22T01:45:58.091Z,99190.03
2022-10-22T01:48:36.666Z,99186.75
2022-10-22T01:51:19.088Z,99184.78
2022-10-22T01:53:53.973Z,99176.59
2022-10-22T01:56:36.589Z,99177.97
2022-10-22T01:59:12.864Z,99182.09
2022-10-22T02:01:50.840Z,99179.53
2022-10-22T02:04:22.840Z,99181.88
2022-10-22T02:06:53.723Z,99186.03
2022-10-22T02:09:24.061Z,99184.81
2022-10-22T02:11:51.709Z,99170.47
2022-10-22T02:14:20.247Z,99180.06
2022-10-22T02:16:50.477Z,99175.34
2022-10-22T02:19:22.923Z,99181.88
2022-10-22T02:21:49.622Z,99177.72
2022-10-22T02:24:17.016Z,99174.50
2022-10-22T02:26:51.307Z,99191.69
2022-10-22T02:29:25.620Z,99187.47
2022-10-22T02:31:58.407Z,99191.59
2022-10-22T02:34:31.598Z,99186.19
2022-10-22T02:37:00.018Z,99186.97
2022-10-22T02:39:27.307Z,99188.22
2022-10-22T02:41:54.292Z,99189.25
2022-10-22T02:44:22.399Z,99198.28
2022-10-22T02:46:49.352Z,99192.69
2022-10-22T02:49:17.826Z,99200.81
2022-10-22T02:51:44.615Z,99197.16
2022-10-22T02:54:11.301Z,99195.59
2022-10-22T02:56:38.200Z,99197.72
2022-10-22T02:59:04.768Z,99207.03
2022-10-22T03:01:31.350Z,99203.06
2022-10-22T03:03:57.933Z,99202.63
2022-10-22T03:08:52.760Z,99205.09
2022-10-22T03:11:19.656Z,99200.41
2022-10-22T03:13:46.485Z,99205.53
2022-10-22T03:16:13.691Z,99197.59
2022-10-22T03:18:40.286Z,99189.97
2022-10-22T03:21:13.734Z,99197.22
2022-10-22T03:23:43.476Z,99193.88
2022-10-22T03:26:13.080Z,99198.09
2022-10-22T03:28:41.510Z,99202.63
2022-10-22T03:31:08.264Z,99199.09
2022-10-22T03:33:34.887Z,99197.53
2022-10-22T03:36:02.080Z,99208.25
2022-10-22T03:38:30.012Z,99206.78
2022-10-22T03:40:58.592Z,99207.78
2022-10-22T03:43:25.290Z,99221.66
2022-10-22T03:45:52.780Z,99210.78
2022-10-22T03:48:19.457Z,99212.94
2022-10-22T03:50:47.859Z,99223.50
2022-10-22T03:53:14.858Z,99215.59
2022-10-22T03:55:42.288Z,99229.19
2022-10-22T03:58:10.920Z,99216.75
2022-10-22T04:00:37.540Z,99214.69
2022-10-22T04:03:04.487Z,99218.19
2022-10-22T04:05:32.665Z,99224.91
2022-10-22T04:07:59.529Z,99220.19
2022-10-22T04:10:26.561Z,99217.94
2022-10-22T04:12:53.096Z,99228.75
2022-10-22T04:15:21.595Z,99234.72
2022-10-22T04:17:49.139Z,99231.38
2022-10-22T04:20:16.105Z,99235.25
2022-10-22T04:22:43.572Z,99239.53
2022-10-22T04:25:10.692Z,99240.16
2022-10-22T04:27:38.082Z,99243.63
2022-10-22T04:30:06.152Z,99244.78
2022-10-22T04:32:34.376Z,99247.09
2022-10-22T04:35:01.264Z,99249.72
2022-10-22T04:37:29.069Z,99252.88
2022-10-22T04:39:58.101Z,99246.09
2022-10-22T04:42:27.393Z,99255.88
2022-10-22T04:44:54.275Z,99252.53
2022-10-22T04:47:21.091Z,99259.81
2022-10-22T04:49:49.160Z,99252.75
2022-10-22T04:52:15.698Z,99258.34
2022-10-22T04:54:42.519Z,99261.56
2022-10-22T04:57:09.032Z,99260.75
2022-10-22T04:59:35.846Z,99267.06
2022-10-22T05:02:02.390Z,99264.31
2022-10-22T05:04:29.049Z,99262.94
2022-10-22T05:06:57.192Z,99262.75
2022-10-22T05:09:23.745Z,99267.38
2022-10-22T05:11:52.513Z,99267.38
2022-10-22T05:14:21.078Z,99264.19
2022-10-22T05:16:48.442Z,99267.53
2022-10-22T05:19:19.256Z,99272.72
2022-10-22T05:21:47.416Z,99274.78
2022-10-22T05:24:15.810Z,99284.00
2022-10-22T05:26:42.561Z,99274.78
2022-10-22T05:29:09.138Z,99287.66
2022-10-22T05:31:35.797Z,99281.56
2022-10-22T05:34:02.460Z,99284.91
2022-10-22T05:36:28.995Z,99296.91
2022-10-22T05:38:56.963Z,99300.06
2022-10-22T05:41:27.285Z,99294.59
2022-10-22T05:43:55.786Z,99296.34
2022-10-22T05:46:24.670Z,99298.47
2022-10-22T05:48:53.607Z,99305.00
2022-10-22T05:51:20.841Z,99309.63
2022-10-22T05:53:51.966Z,99310.19
2022-10-22T05:56:18.756Z,99307.16
2022-10-22T05:58:47.250Z,99313.94
2022-10-22T06:01:17.923Z,99325.81
2022-10-22T06:03:45.476Z,99316.38
2022-10-22T06:06:19.528Z,99321.72
2022-10-22T06:08:47.344Z,99329.41
2022-10-22T06:11:14.869Z,99318.00
2022-10-22T06:13:41.811Z,99332.41
2022-10-22T06:16:10.039Z,99320.88
2022-10-22T06:18:36.618Z,99327.66
2022-10-22T06:21:07.378Z,99326.47
2022-10-22T06:23:34.496Z,99329.22
2022-10-22T06:26:01.986Z,99337.44
2022-10-22T06:28:29.103Z,99340.44
2022-10-22T06:30:57.317Z,99347.47
2022-10-22T06:33:25.313Z,99351.38
2022-10-22T06:35:51.992Z,99361.16
2022-10-22T06:38:19.194Z,99362.88
2022-10-22T06:40:45.752Z,99365.78
2022-10-22T06:43:13.070Z,99369.34
2022-10-22T06:45:39.883Z,99368.28
2022-10-22T06:48:07.298Z,99372.00
2022-10-22T06:50:35.781Z,99375.81
2022-10-22T06:53:04.985Z,99379.44
2022-10-22T06:55:31.661Z,99384.91
2022-10-22T06:57:58.164Z,99389.16
2022-10-22T07:00:25.393Z,99390.28
2022-10-22T07:02:54.327Z,99398.91
2022-10-22T07:05:23.491Z,99391.56
2022-10-22T07:07:52.184Z,99401.06
2022-10-22T07:10:20.495Z,99385.34
2022-10-22T07:12:47.069Z,99402.25
2022-10-22T07:15:13.696Z,99401.88
2022-10-22T07:17:42.492Z,99400.72
2022-10-22T07:20:10.211Z,99405.44
2022-10-22T07:22:36.722Z,99404.06
2022-10-22T07:25:07.274Z,99408.41
2022-10-22T07:27:34.084Z,99405.91
2022-10-22T07:30:00.676Z,99414.38
2022-10-22T07:32:27.243Z,99411.59
2022-10-22T07:34:54.476Z,99419.03
2022-10-22T07:37:21.094Z,99418.09
2022-10-22T07:39:47.700Z,99417.44
2022-10-22T07:42:16.440Z,99428.34
2022-10-22T07:44:43.084Z,99426.44
2022-10-22T07:47:09.716Z,99433.69
2022-10-22T07:49:36.260Z,99436.13
2022-10-22T07:52:03.626Z,99442.00
2022-10-22T07:54:30.177Z,99439.94
2022-10-22T07:56:56.965Z,99446.16
2022-10-22T07:59:26.487Z,99450.94
2022-10-22T08:01:53.130Z,99452.47
2022-10-22T08:04:21.783Z,99452.75
2022-10-22T08:06:48.412Z,99456.88
2022-10-22T08:09:15.409Z,99459.13
2022-10-22T08:11:42.401Z,99461.97
2022-10-22T08:14:09.869Z,99468.22
2022-10-22T08:16:37.935Z,99474.66
2022-10-22T08:19:05.026Z,99482.28
2022-10-22T08:21:32.746Z,99479.88
2022-10-22T08:23:59.360Z,99482.66
2022-10-22T08:26:26.226Z,99477.06
2022-10-22T08:28:52.821Z,99486.34
2022-10-22T08:31:19.412Z,99492.09
2022-10-22T08:33:48.480Z,99495.50
2022-10-22T08:36:15.674Z,99504.41
2022-10-22T08:38:42.622Z,99507.94
2022-10-22T08:41:12.853Z,99514.66
2022-10-22T08:44:15.065Z,99515.53
2022-10-22T08:46:54.291Z,99512.81
2022-10-22T08:49:26.288Z,99516.97
2022-10-22T08:51:53.263Z,99511.44
2022-10-22T08:54:30.589Z,99522.28
2022-10-22T08:57:10.040Z,99520.25
2022-10-22T08:59:44.715Z,99523.75
2022-10-22T09:02:25.179Z,99521.97
2022-10-22T09:05:11.651Z,99528.84
2022-10-22T09:07:43.310Z,99526.56
2022-10-22T09:10:13.703Z,99532.16
2022-10-22T09:12:43.619Z,99527.84
2022-10-22T09:15:15.349Z,99530.16
2022-10-22T09:17:56.841Z,99526.91
2022-10-22T09:20:32.639Z,99541.38
2022-10-22T09:23:12.734Z,99539.19
2022-10-22T09:25:40.320Z,99540.38
2022-10-22T09:28:09.300Z,99532.72
2022-10-22T09:30:38.997Z,99540.53
2022-10-22T09:33:13.159Z,99538.69
2022-10-22T09:35:48.008Z,99547.66
2022-10-22T09:38:16.328Z,99550.25
2022-10-22T09:40:44.727Z,99548.50
2022-10-22T09:43:13.596Z,99553.84
2022-10-22T09:45:41.021Z,99546.25
2022-10-22T09:48:18.612Z,99560.22
2022-10-22T09:50:48.242Z,99559.06
2022-10-22T09:53:20.052Z,99565.81
2022-10-22T09:55:51.628Z,99567.38
2022-10-22T09:58:19.193Z,99568.91
2022-10-22T10:00:51.491Z,99578.91
2022-10-22T10:03:19.630Z,99574.06
2022-10-22T10:05:50.100Z,99580.16
2022-10-22T10:08:18.375Z,99582.34
2022-10-22T10:10:49.007Z,99583.13
2022-10-22T10:13:30.795Z,99583.41
2022-10-22T10:16:05.268Z,99588.91
2022-10-22T10:18:43.982Z,99595.81
2022-10-22T10:21:23.295Z,99597.56
2022-10-22T10:24:00.358Z,99603.97
2022-10-22T10:26:32.729Z,99596.53
2022-10-22T10:29:15.233Z,99604.31
2022-10-22T10:31:52.564Z,99609.50
2022-10-22T10:34:29.903Z,99600.56
2022-10-22T10:37:10.728Z,99602.97
2022-10-22T10:39:52.215Z,99618.72
2022-10-22T10:42:27.264Z,99608.50
2022-10-22T10:45:07.839Z,99613.00
2022-10-22T10:47:52.834Z,99613.84
2022-10-22T10:50:27.165Z,99612.06
2022-10-22T10:53:03.757Z,99618.56
2022-10-22T10:55:33.923Z,99615.44
2022-10-22T10:58:10.998Z,99620.44
2022-10-22T11:00:47.474Z,99614.06
2022-10-22T11:03:45.566Z,99602.19
2022-10-22T11:06:15.833Z,99614.13
2022-10-22T11:08:50.925Z,99614.19
2022-10-22T11:11:22.900Z,99620.56
2022-10-22T11:13:53.209Z,99620.78
2022-10-22T11:16:24.908Z,99621.13
2022-10-22T11:19:00.627Z,99622.53
2022-10-22T11:21:32.346Z,99629.09
2022-10-22T11:24:10.176Z,99634.81
2022-10-22T11:26:44.233Z,99637.44
2022-10-22T11:29:15.230Z,99629.44
2022-10-22T11:31:42.924Z,99622.16
2022-10-22T11:34:33.154Z,99623.53
2022-10-22T11:37:01.456Z,99626.13
2022-10-22T11:39:38.658Z,99631.84
2022-10-22T11:42:09.179Z,99627.88
2022-10-22T11:44:47.152Z,99627.03
2022-10-22T11:47:19.097Z,99640.16
2022-10-22T11:49:55.664Z,99634.28
2022-10-22T11:52:26.229Z,99638.44
2022-10-22T11:55:22.496Z,99634.28
2022-10-22T11:57:49.109Z,99629.91
2022-10-22T12:00:34.782Z,99627.03
2022-10-22T12:03:15.445Z,99635.28
2022-10-22T12:05:45.275Z,99631.50
2022-10-22T12:08:26.299Z,99628.22
2022-10-22T12:11:06.395Z,99616.28
2022-10-22T12:13:53.142Z,99617.81
2022-10-22T12:16:32.221Z,99617.41
2022-10-22T12:19:15.368Z,99615.50
2022-10-22T12:21:47.660Z,99623.84
2022-10-22T12:24:17.029Z,99624.41
2022-10-22T12:26:45.034Z,99625.03
2022-10-22T12:29:14.080Z,99620.94
2022-10-22T12:31:44.015Z,99621.84
2022-10-22T12:34:16.004Z,99623.41
2022-10-22T12:36:44.450Z,99616.75
2022-10-22T12:39:14.164Z,99619.75
2022-10-22T12:41:41.425Z,99618.38
2022-10-22T12:44:12.232Z,99617.66
2022-10-22T12:46:39.429Z,99610.41
2022-10-22T12:49:13.722Z,99610.59
2022-10-22T12:51:40.385Z,99617.31
2022-10-22T12:54:15.190Z,99612.34
2022-10-22T12:56:42.859Z,99611.25
2022-10-22T12:59:17.895Z,99602.94
2022-10-22T13:01:44.769Z,99606.25
2022-10-22T13:04:33.599Z,99601.53
2022-10-22T13:07:19.759Z,99614.03
2022-10-22T13:09:58.066Z,99601.75
2022-10-22T13:12:25.973Z,99609.16
2022-10-22T13:14:56.426Z,99616.63
2022-10-22T13:17:39.931Z,99617.59
2022-10-22T13:20:17.831Z,99616.88
2022-10-22T13:22:54.562Z,99616.63
2022-10-22T13:25:26.392Z,99614.91
2022-10-22T13:27:56.345Z,99617.81
2022-10-22T13:30:28.191Z,99623.13
2022-10-22T13:32:57.284Z,99628.03
2022-10-22T13:35:26.067Z,99629.72
2022-10-22T13:37:53.392Z,99624.50
2022-10-22T13:40:20.700Z,99615.41
2022-10-22T13:42:47.512Z,99624.41
2022-10-22T13:45:14.907Z,99621.78
2022-10-22T13:47:46.565Z,99616.91
2022-10-22T13:50:15.292Z,99624.63
2022-10-22T13:52:45.394Z,99628.22
2022-10-22T13:55:18.290Z,99623.91
2022-10-22T13:57:45.484Z,99635.28
2022-10-22T14:00:14.745Z,99629.44
2022-10-22T14:02:43.268Z,99637.41
2022-10-22T14:05:10.736Z,99631.50
2022-10-22T14:07:39.376Z,99633.44
2022-10-22T14:10:18.291Z,99630.34
2022-10-22T14:12:47.338Z,99632.72
2022-10-22T14:15:18.890Z,99632.91
2022-10-22T14:17:51.848Z,99620.78
2022-10-22T14:20:22.069Z,99624.97
2022-10-22T14:22:51.034Z,99626.69
2022-10-22T14:25:20.039Z,99626.47
2022-10-22T14:27:47.872Z,99622.00
2022-10-22T14:30:19.685Z,99626.66
2022-10-22T14:32:48.642Z,99618.00
2022-10-22T14:35:17.738Z,99620.97
2022-10-22T14:37:44.609Z,99617.66
2022-10-22T14:40:15.978Z,99612.66
2022-10-22T14:42:44.755Z,99625.66
2022-10-22T14:45:16.539Z,99623.59
2022-10-22T14:47:45.832Z,99622.88
2022-10-22T14:50:16.042Z,99634.47
2022-10-22T14:52:45.011Z,99624.25
2022-10-22T14:55:13.626Z,99631.34
2022-10-22T14:57:41.261Z,99626.69
2022-10-22T15:00:11.783Z,99622.88
2022-10-22T15:02:38.398Z,99628.41
2022-10-22T15:05:07.466Z,99634.81
2022-10-22T15:07:36.573Z,99636.34
2022-10-22T15:10:05.221Z,99635.50
2022-10-22T15:12:34.609Z,99633.91
2022-10-22T15:15:02.300Z,99636.03
2022-10-22T15:17:29.332Z,99637.34
2022-10-22T15:19:55.962Z,99629.50
2022-10-22T15:22:23.218Z,99644.25
2022-10-22T15:24:52.041Z,99648.41
2022-10-22T15:27:21.464Z,99647.50
2022-10-22T15:29:48.399Z,99642.09
2022-10-22T15:32:15.054Z,99648.31
2022-10-22T15:34:41.697Z,99641.38
2022-10-22T15:37:11.671Z,99637.00
2022-10-22T15:39:39.418Z,99643.81
2022-10-22T15:42:07.829Z,99646.63
2022-10-22T15:44:34.854Z,99656.63
2022-10-22T15:47:04.067Z,99660.34
2022-10-22T15:49:30.668Z,99651.47
2022-10-22T15:51:57.817Z,99660.03
2022-10-22T15:54:26.277Z,99662.38
2022-10-22T15:56:52.820Z,99660.41
2022-10-22T15:59:21.626Z,99663.34
2022-10-22T16:01:48.489Z,99655.00
2022-10-22T16:04:15.731Z,99670.50
2022-10-22T16:06:44.143Z,99667.25
2022-10-22T16:09:12.712Z,99681.28
2022-10-22T16:11:41.246Z,99668.72
2022-10-22T16:14:11.070Z,99672.97
2022-10-22T16:16:43.964Z,99675.03
2022-10-22T16:19:11.689Z,99677.81
2022-10-22T16:21:38.547Z,99671.06
2022-10-22T16:24:06.635Z,99685.69
2022-10-22T16:26:33.816Z,99681.22
2022-10-22T16:29:00.343Z,99673.97
2022-10-22T16:31:26.968Z,99673.13
2022-10-22T16:33:55.219Z,99670.25
2022-10-22T16:36:22.541Z,99673.06
2022-10-22T16:38:49.625Z,99674.09
2022-10-22T16:41:18.011Z,99669.81
2022-10-22T16:43:46.321Z,99669.84
2022-10-22T16:46:13.496Z,99667.81
2022-10-22T16:48:43.963Z,99664.81
2022-10-22T16:51:14.807Z,99674.22
2022-10-22T16:53:44.204Z,99671.59
2022-10-22T16:56:13.413Z,99677.13
2022-10-22T16:58:44.546Z,99682.88
2022-10-22T17:01:11.420Z,99683.19
2022-10-22T17:03:38.659Z,99682.72
2022-10-22T17:06:06.573Z,99696.81
2022-10-22T17:08:37.071Z,99695.03
2022-10-22T17:11:07.998Z,99686.34
2022-10-22T17:13:35.281Z,99695.19
2022-10-22T17:16:03.164Z,99696.34
2022-10-22T17:18:30.043Z,99697.94
2022-10-22T17:20:56.787Z,99698.66
2022-10-22T17:23:26.004Z,99696.03
2022-10-22T17:25:59.970Z,99695.63
2022-10-22T17:28:26.969Z,99700.25
2022-10-22T17:31:02.917Z,99702.56
2022-10-22T17:33:29.518Z,99713.56
2022-10-22T17:35:56.284Z,99697.78
2022-10-22T17:38:24.358Z,99692.56
2022-10-22T17:40:51.063Z,99705.19
2022-10-22T17:43:19.099Z,99703.75
2022-10-22T17:45:45.637Z,99705.88
2022-10-22T17:48:12.338Z,99709.06
2022-10-22T17:50:48.162Z,99721.50
2022-10-22T17:53:17.454Z,99720.94
2022-10-22T17:55:44.089Z,99716.00
2022-10-22T17:58:15.812Z,99712.06
2022-10-22T18:00:44.137Z,99717.16
2022-10-22T18:03:10.849Z,99717.00
2022-10-22T18:05:37.442Z,99722.78
2022-10-22T18:08:06.967Z,99716.28
2022-10-22T18:10:39.793Z,99718.00
2022-10-22T18:13:07.027Z,99718.59
2022-10-22T18:15:33.563Z,99721.63
2022-10-22T18:18:01.580Z,99720.88
2022-10-22T18:20:28.265Z,99718.59
2022-10-22T18:22:55.936Z,99710.34
2022-10-22T18:25:22.843Z,99710.94
2022-10-22T18:27:49.999Z,99716.72
2022-10-22T18:30:16.885Z,99719.75
2022-10-22T18:32:44.596Z,99719.16
2022-10-22T18:35:12.689Z,99722.38
2022-10-22T18:37:39.645Z,99716.75
2022-10-22T18:40:10.415Z,99714.56
2022-10-22T18:42:39.802Z,99708.34
2022-10-22T18:45:07.618Z,99714.72
2022-10-22T18:47:34.188Z,99707.31
2022-10-22T18:50:01.038Z,99708.22
2022-10-22T18:52:29.248Z,99709.66
2022-10-22T18:54:56.143Z,99715.00
2022-10-22T18:57:22.669Z,99714.41
2022-10-22T18:59:49.511Z,99717.91
2022-10-22T19:02:16.948Z,99712.41
2022-10-22T19:04:44.106Z,99716.16
2022-10-22T19:07:11.186Z,99714.56
2022-10-22T19:09:40.059Z,99716.47
2022-10-22T19:12:09.237Z,99717.75
2022-10-22T19:14:36.609Z,99718.47
2022-10-22T19:17:03.848Z,99712.69
2022-10-22T19:19:30.697Z,99699.38
2022-10-22T19:21:57.482Z,99705.19
2022-10-22T19:24:24.060Z,99704.28
2022-10-22T19:26:52.529Z,99692.41
2022-10-22T19:29:20.945Z,99684.72
2022-10-22T19:31:47.599Z,99694.44
2022-10-22T19:34:17.425Z,99690.66
2022-10-22T19:36:44.409Z,99687.47
2022-10-22T19:39:15.233Z,99680.19
2022-10-22T19:41:42.376Z,99695.69
2022-10-22T19:44:10.579Z,99693.69
2022-10-22T19:46:38.453Z,99700.16
2022-10-22T19:49:05.621Z,99695.25
2022-10-22T19:51:32.853Z,99702.78
2022-10-22T19:54:01.577Z,99699.75
2022-10-22T19:56:29.016Z,99697.13
2022-10-22T19:58:55.621Z,99699.97
2022-10-22T20:01:24.711Z,99701.00
2022-10-22T20:03:51.585Z,99700.44
2022-10-22T20:06:19.589Z,99707.53
2022-10-22T20:08:46.524Z,99701.75
2022-10-22T20:11:17.655Z,99703.94
2022-10-22T20:13:46.721Z,99703.19
2022-10-22T20:16:18.152Z,99715.22
2022-10-22T20:18:46.459Z,99701.47
2022-10-22T20:21:15.873Z,99707.81
2022-10-22T20:23:46.725Z,99701.34
2022-10-22T20:26:13.425Z,99710.56
2022-10-22T20:28:40.364Z,99701.47
2022-10-22T20:31:11.008Z,99717.09
2022-10-22T20:33:37.897Z,99712.63
2022-10-22T20:36:09.048Z,99716.81
2022-10-22T20:41:06.111Z,99704.22
2022-10-22T20:43:33.195Z,99707.59
2022-10-22T20:46:00.133Z,99705.25
2022-10-22T20:48:28.581Z,99691.50
2022-10-22T20:50:55.505Z,99695.88
2022-10-22T20:53:24.278Z,99711.31
2022-10-22T20:55:53.178Z,99702.78
2022-10-22T20:58:23.331Z,99703.41
2022-10-22T21:00:52.772Z,99695.16
2022-10-22T21:03:19.473Z,99695.41
2022-10-22T21:05:46.204Z,99706.44
2022-10-22T21:08:12.770Z,99702.66
2022-10-22T21:10:40.988Z,99714.53
2022-10-22T21:13:10.213Z,99710.47
2022-10-22T21:15:37.044Z,99710.22
2022-10-22T21:18:04.279Z,99715.56
2022-10-22T21:20:30.841Z,99717.00
2022-10-22T21:22:57.479Z,99714.81
2022-10-22T21:25:23.997Z,99717.91
2022-10-22T21:27:53.314Z,99716.13
2022-10-22T21:30:21.158Z,99709.78
2022-10-22T21:32:47.709Z,99715.84
2022-10-22T21:35:14.818Z,99714.13
2022-10-22T21:37:41.709Z,99713.84
2022-10-22T21:40:10.430Z,99717.75
2022-10-22T21:42:36.995Z,99708.34
2022-10-22T21:45:12.381Z,99704.56
2022-10-22T21:47:42.884Z,99696.78
2022-10-22T21:50:09.987Z,99701.25
2022-10-22T21:52:36.943Z,99700.09
2022-10-22T21:55:15.857Z,99709.50
2022-10-22T21:57:43.723Z,99709.19
2022-10-22T22:00:13.848Z,99710.81
2022-10-22T22:02:41.066Z,99713.84
2022-10-22T22:05:08.427Z,99710.09
2022-10-22T22:07:35.751Z,99713.84
2022-10-22T22:10:02.582Z,99709.38
2022-10-22T22:12:29.202Z,99711.94
2022-10-22T22:14:55.834Z,99706.19
2022-10-22T22:17:24.017Z,99703.13
2022-10-22T22:19:50.521Z,99698.38
2022-10-22T22:22:18.683Z,99689.53
2022-10-22T22:24:45.320Z,99696.94
2022-10-22T22:27:11.851Z,99703.13
2022-10-22T22:29:38.437Z,99691.13
2022-10-22T22:32:05.414Z,99690.69
2022-10-22T22:34:33.301Z,99688.97
2022-10-22T22:36:59.976Z,99689.38
2022-10-22T22:39:26.548Z,99696.47
2022-10-22T22:41:53.319Z,99696.78
2022-10-22T22:44:20.649Z,99692.28
2022-10-22T22:46:47.200Z,99689.09
2022-10-22T22:49:13.975Z,99686.06
2022-10-22T22:51:41.962Z,99692.13
2022-10-22T22:54:09.916Z,99678.97
2022-10-22T22:56:38.091Z,99693.56
2022-10-22T22:59:05.837Z,99688.22
2022-10-22T23:01:34.619Z,99685.31
2022-10-22T23:04:04.573Z,99689.25
2022-10-22T23:06:33.636Z,99682.91
2022-10-22T23:09:03.914Z,99679.53
2022-10-22T23:11:30.926Z,99674.50
2022-10-22T23:13:58.873Z,99683.19
2022-10-22T23:16:28.390Z,99672.31
2022-10-22T23:18:56.314Z,99673.34
2022-10-22T23:21:25.703Z,99671.16
2022-10-22T23:23:56.092Z,99662.22
2022-10-22T23:26:27.555Z,99665.09
2022-10-22T23:28:54.435Z,99670.16
2022-10-22T23:31:21.702Z,99672.88
2022-10-22T23:33:49.760Z,99667.72
2022-10-22T23:36:16.536Z,99670.13
2022-10-22T23:38:43.151Z,99663.06
2022-10-22T23:41:09.848Z,99654.06
2022-10-22T23:43:38.567Z,99666.66
2022-10-22T23:46:06.678Z,99668.84
2022-10-22T23:48:36.102Z,99663.91
2022-10-22T23:51:06.611Z,99662.59
2022-10-22T23:53:33.262Z,99658.25
2022-10-22T23:56:04.495Z,99654.78
2022-10-22T23:58:31.115Z,99651.31
